Time;durP1;ratioP1;P1;durP2;ratioP2;P2;SDS_P1;SDS_P2;PMS_P1;PMS_P2;Temp;Humidity;BMP_temperature;BMP_pressure;BME280_temperature;BME280_humidity;BME280_pressure;Samples;Min_cycle;Max_cycle;Signal;HPM_P1;HPM_P2
2021/01/05 00:02:18;;;;;;;66.72;28.05;;;6.10;61.60;;;;;;5078956;28;20473;-77
2021/01/05 00:04:45;;;;;;;66.45;28.90;;;6.20;61.60;;;;;;5073130;28;20032;-77
2021/01/05 00:07:12;;;;;;;62.90;25.40;;;6.20;61.70;;;;;;5067522;28;20432;-76
2021/01/05 00:09:38;;;;;;;63.25;27.58;;;6.20;61.70;;;;;;5089394;28;20032;-77
2021/01/05 00:12:07;;;;;;;71.07;28.70;;;6.20;61.70;;;;;;5068590;28;20394;-77
2021/01/05 00:14:33;;;;;;;65.70;26.17;;;6.20;61.70;;;;;;5086554;28;20026;-77
2021/01/05 00:17:04;;;;;;;68.53;28.05;;;6.20;61.80;;;;;;5085841;28;20028;-77
2021/01/05 00:19:29;;;;;;;73.55;28.30;;;6.20;61.90;;;;;;5088091;28;20350;-76
2021/01/05 00:21:55;;;;;;;69.22;28.27;;;6.20;61.80;;;;;;5079351;28;20029;-76
2021/01/05 00:24:21;;;;;;;69.25;27.52;;;6.10;61.80;;;;;;5091866;28;20131;-76
2021/01/05 00:26:47;;;;;;;62.15;25.33;;;6.10;61.80;;;;;;5081629;28;20028;-76
2021/01/05 00:29:13;;;;;;;71.50;27.60;;;6.20;61.90;;;;;;5084954;28;20401;-77
2021/01/05 00:31:39;;;;;;;71.93;28.17;;;6.10;61.90;;;;;;5089192;28;20092;-76
2021/01/05 00:34:07;;;;;;;76.93;28.75;;;6.10;61.90;;;;;;5078664;28;20170;-76
2021/01/05 00:36:33;;;;;;;63.45;26.05;;;6.10;61.90;;;;;;5090613;28;20020;-76
2021/01/05 00:38:59;;;;;;;70.05;27.33;;;6.10;62.00;;;;;;5082352;28;20106;-76
2021/01/05 00:41:24;;;;;;;73.28;28.25;;;6.10;62.10;;;;;;5077883;28;20615;-77
2021/01/05 00:43:50;;;;;;;73.18;29.23;;;6.10;62.10;;;;;;5077923;28;20020;-77
2021/01/05 00:46:18;;;;;;;68.72;26.77;;;6.00;62.10;;;;;;5091561;28;20095;-77
2021/01/05 00:48:44;;;;;;;66.95;26.85;;;6.00;62.20;;;;;;5080993;28;20094;-76
2021/01/05 00:51:11;;;;;;;75.55;28.55;;;6.00;62.30;;;;;;5085037;28;20016;-77
2021/01/05 00:53:37;;;;;;;60.60;24.77;;;6.00;62.40;;;;;;5088526;28;20024;-76
2021/01/05 00:56:02;;;;;;;61.05;26.98;;;6.00;62.50;;;;;;5076907;28;20021;-76
2021/01/05 00:58:28;;;;;;;63.75;24.88;;;6.00;62.40;;;;;;5087557;28;20538;-76
2021/01/05 01:00:54;;;;;;;70.43;27.75;;;6.00;62.40;;;;;;5085810;28;20111;-77
2021/01/05 01:03:22;;;;;;;69.55;28.10;;;6.00;62.40;;;;;;5084582;28;20452;-76
2021/01/05 01:05:49;;;;;;;76.55;29.13;;;6.00;62.40;;;;;;5079294;28;20024;-76
2021/01/05 01:08:17;;;;;;;67.22;25.30;;;6.00;62.40;;;;;;5091060;28;20115;-76
2021/01/05 01:10:43;;;;;;;68.03;27.52;;;6.00;62.40;;;;;;5079319;28;20073;-77
2021/01/05 01:13:10;;;;;;;79.97;29.55;;;6.00;62.40;;;;;;5083380;28;20025;-76
2021/01/05 01:15:37;;;;;;;67.00;26.08;;;6.00;62.50;;;;;;5087962;28;20534;-77
2021/01/05 01:18:05;;;;;;;64.47;27.52;;;6.00;62.50;;;;;;5077674;28;20025;-76
2021/01/05 01:20:32;;;;;;;62.35;26.98;;;6.00;62.50;;;;;;5089972;28;20202;-76
2021/01/05 01:22:58;;;;;;;67.18;27.05;;;6.00;62.50;;;;;;5082267;28;20032;-76
2021/01/05 01:25:24;;;;;;;65.00;27.33;;;6.00;62.50;;;;;;5075010;28;20036;-76
2021/01/05 01:27:51;;;;;;;64.25;26.77;;;6.00;62.50;;;;;;5085005;28;20064;-76
2021/01/05 01:30:17;;;;;;;62.63;28.42;;;5.90;62.30;;;;;;5076031;28;20381;-75
2021/01/05 01:32:44;;;;;;;68.15;27.58;;;5.90;62.40;;;;;;5086673;28;20016;-76
2021/01/05 01:35:10;;;;;;;60.55;25.40;;;6.00;62.50;;;;;;5083763;28;20405;-76
2021/01/05 01:37:36;;;;;;;66.20;27.02;;;5.90;62.40;;;;;;5080605;28;20017;-76
2021/01/05 01:40:03;;;;;;;68.15;28.52;;;6.00;62.50;;;;;;5090549;28;20054;-76
2021/01/05 01:42:28;;;;;;;61.60;26.35;;;6.00;62.50;;;;;;5077996;28;20017;-76
2021/01/05 01:44:54;;;;;;;64.20;28.17;;;6.00;62.60;;;;;;5086222;28;20024;-76
2021/01/05 01:47:30;;;;;;;63.88;27.65;;;6.00;62.60;;;;;;5083700;28;20028;-76
2021/01/05 01:50:14;;;;;;;67.28;28.13;;;6.00;62.60;;;;;;5077550;28;20060;-77
2021/01/05 01:53:04;;;;;;;54.58;24.15;;;6.00;62.60;;;;;;5061535;28;20034;-77
2021/01/05 01:55:30;;;;;;;61.42;24.38;;;6.10;62.60;;;;;;5073294;28;20032;-77
2021/01/05 01:58:05;;;;;;;53.17;21.23;;;6.10;62.60;;;;;;5082720;28;20024;-77
2021/01/05 02:00:53;;;;;;;51.75;22.13;;;6.10;62.50;;;;;;5062642;28;20132;-77
2021/01/05 02:03:30;;;;;;;51.75;23.10;;;6.20;62.50;;;;;;5082449;28;20021;-77
2021/01/05 02:06:15;;;;;;;57.30;24.40;;;6.20;62.30;;;;;;5090093;28;20042;-77
2021/01/05 02:08:59;;;;;;;53.33;22.17;;;6.30;63.00;;;;;;5063911;28;20024;-76
2021/01/05 02:11:53;;;;;;;44.05;20.13;;;6.30;62.10;;;;;;5080324;28;20109;-77
2021/01/05 02:14:21;;;;;;;52.03;21.90;;;6.40;62.10;;;;;;5090035;28;20106;-76
2021/01/05 02:17:03;;;;;;;45.97;19.50;;;6.40;62.00;;;;;;5078197;28;20016;-76
2021/01/05 02:19:38;;;;;;;50.92;22.60;;;6.40;61.90;;;;;;5080914;28;20029;-76
2021/01/05 02:22:19;;;;;;;56.42;24.63;;;6.50;61.90;;;;;;5089911;28;20504;-76
2021/01/05 02:25:04;;;;;;;55.55;24.30;;;6.50;61.70;;;;;;5071412;28;20040;-76
2021/01/05 02:27:31;;;;;;;48.35;24.02;;;6.50;61.50;;;;;;5079523;28;20039;-76
2021/01/05 02:30:01;;;;;;;56.45;24.05;;;6.60;61.50;;;;;;5089656;28;20016;-76
2021/01/05 02:32:49;;;;;;;44.58;20.02;;;6.60;62.20;;;;;;5060941;28;20023;-77
2021/01/05 02:35:39;;;;;;;49.22;20.88;;;6.60;61.40;;;;;;5082589;28;20044;-76
2021/01/05 02:38:33;;;;;;;50.95;22.00;;;6.60;61.40;;;;;;5089828;28;20070;-77
2021/01/05 02:41:37;;;;;;;50.67;22.25;;;6.70;61.40;;;;;;5081472;28;20430;-76
2021/01/05 02:44:33;;;;;;;48.38;21.67;;;6.70;61.20;;;;;;5075098;28;20359;-77
2021/01/05 02:47:33;;;;;;;53.45;22.00;;;6.70;61.10;;;;;;5084646;28;20492;-76
2021/01/05 02:50:06;;;;;;;55.65;25.23;;;6.80;61.10;;;;;;5089604;28;20035;-76
2021/01/05 02:52:31;;;;;;;55.38;23.92;;;6.70;60.90;;;;;;5077599;28;20106;-76
2021/01/05 02:55:09;;;;;;;53.03;24.23;;;6.80;60.90;;;;;;5084890;28;20347;-77
2021/01/05 02:57:50;;;;;;;55.03;23.95;;;6.70;60.70;;;;;;5082233;28;20021;-77
2021/01/05 03:00:25;;;;;;;57.22;26.02;;;6.70;60.70;;;;;;5089498;28;20101;-75
2021/01/05 03:03:11;;;;;;;61.53;26.63;;;6.70;60.60;;;;;;5080109;28;20362;-76
2021/01/05 03:05:49;;;;;;;72.78;29.55;;;6.70;60.70;;;;;;5079348;28;20025;-76
2021/01/05 03:08:19;;;;;;;65.95;27.35;;;6.60;60.60;;;;;;5089335;28;20032;-76
2021/01/05 03:11:00;;;;;;;69.30;28.10;;;6.60;60.80;;;;;;5079343;28;20020;-76
2021/01/05 03:13:53;;;;;;;70.03;27.45;;;6.50;60.90;;;;;;5080620;28;20350;-76
2021/01/05 03:16:28;;;;;;;67.68;27.73;;;6.50;61.00;;;;;;5089368;28;20505;-76
2021/01/05 03:19:12;;;;;;;66.63;28.90;;;6.50;61.10;;;;;;5080421;28;20373;-76
2021/01/05 03:21:45;;;;;;;75.32;30.30;;;6.50;61.20;;;;;;5079177;28;20021;-75
2021/01/05 03:24:12;;;;;;;75.63;29.05;;;6.50;61.30;;;;;;5087398;28;20070;-76
2021/01/05 03:26:42;;;;;;;67.50;27.95;;;6.50;61.40;;;;;;5078171;28;20453;-76
2021/01/05 03:29:09;;;;;;;74.50;29.65;;;6.40;61.50;;;;;;5084987;28;20378;-76
2021/01/05 03:31:51;;;;;;;73.35;29.88;;;6.40;61.70;;;;;;5089772;28;20051;-76
2021/01/05 03:34:18;;;;;;;71.30;27.10;;;6.40;61.80;;;;;;5077267;28;20040;-76
2021/01/05 03:36:44;;;;;;;68.05;27.33;;;6.40;61.90;;;;;;5075337;28;20056;-76
2021/01/05 03:39:10;;;;;;;75.18;27.52;;;6.40;62.00;;;;;;5075475;28;20020;-76
2021/01/05 03:41:36;;;;;;;61.10;26.15;;;6.40;62.10;;;;;;5075115;28;20104;-76
2021/01/05 03:44:02;;;;;;;61.88;25.38;;;6.40;62.10;;;;;;5076415;28;20116;-76
2021/01/05 03:46:29;;;;;;;60.10;25.70;;;6.40;62.10;;;;;;5076355;28;20030;-76
2021/01/05 03:48:56;;;;;;;65.10;25.67;;;6.40;62.10;;;;;;5076539;28;20066;-76
2021/01/05 03:51:22;;;;;;;61.90;24.35;;;6.40;62.10;;;;;;5076338;28;20393;-76
2021/01/05 03:53:48;;;;;;;62.33;25.73;;;6.50;62.10;;;;;;5076310;28;20099;-76
2021/01/05 03:56:14;;;;;;;60.85;25.65;;;6.50;62.10;;;;;;5076199;28;20074;-76
2021/01/05 03:58:40;;;;;;;62.10;25.67;;;6.50;62.00;;;;;;5076531;28;20024;-76
2021/01/05 04:01:06;;;;;;;61.10;24.50;;;6.50;61.90;;;;;;5076178;28;20095;-76
2021/01/05 04:03:32;;;;;;;71.38;27.17;;;6.50;61.90;;;;;;5076121;28;20029;-76
2021/01/05 04:05:58;;;;;;;68.85;25.30;;;6.50;61.80;;;;;;5074815;28;20032;-76
2021/01/05 04:08:24;;;;;;;66.20;26.85;;;6.50;61.80;;;;;;5075939;28;20024;-76
2021/01/05 04:10:50;;;;;;;67.05;26.63;;;6.50;61.80;;;;;;5076114;28;20032;-75
2021/01/05 04:13:16;;;;;;;57.90;23.63;;;6.40;61.70;;;;;;5075883;28;20017;-76
2021/01/05 04:15:42;;;;;;;66.65;26.63;;;6.40;61.70;;;;;;5075816;28;20028;-76
2021/01/05 04:18:09;;;;;;;75.72;28.85;;;6.40;61.80;;;;;;5075874;28;20385;-76
2021/01/05 04:20:35;;;;;;;69.22;27.67;;;6.40;61.80;;;;;;5072699;28;20150;-76
2021/01/05 04:23:00;;;;;;;70.07;25.02;;;6.40;61.90;;;;;;5055540;28;20480;-76
2021/01/05 04:25:27;;;;;;;67.20;26.10;;;6.40;61.90;;;;;;5055617;28;20031;-75
2021/01/05 04:27:53;;;;;;;71.60;26.65;;;6.40;61.90;;;;;;5055574;28;20032;-75
2021/01/05 04:30:24;;;;;;;63.20;26.38;;;6.40;62.00;;;;;;5055529;28;20449;-75
2021/01/05 04:32:51;;;;;;;65.32;26.35;;;6.30;62.00;;;;;;5055560;28;20052;-76
2021/01/05 04:35:19;;;;;;;77.13;28.75;;;6.30;62.00;;;;;;5055765;28;20017;-76
2021/01/05 04:37:45;;;;;;;71.60;27.58;;;6.30;62.00;;;;;;5055279;28;20025;-76
2021/01/05 04:40:37;;;;;;;75.53;28.42;;;6.30;62.10;;;;;;5054757;28;20033;-76
2021/01/05 04:43:25;;;;;;;79.47;27.30;;;6.20;62.20;;;;;;5054074;28;20371;-76
2021/01/05 04:46:00;;;;;;;78.07;26.95;;;6.20;62.40;;;;;;5055478;28;20020;-76
2021/01/05 04:48:47;;;;;;;86.28;30.23;;;6.20;62.60;;;;;;5055202;28;20513;-76
2021/01/05 04:51:23;;;;;;;91.15;30.20;;;6.20;62.70;;;;;;5055472;28;20025;-76
2021/01/05 04:53:59;;;;;;;98.78;32.75;;;6.20;63.60;;;;;;5055159;28;20024;-76
2021/01/05 04:56:42;;;;;;;97.20;32.08;;;6.20;63.00;;;;;;5054930;28;20026;-76
2021/01/05 04:59:11;;;;;;;92.65;33.83;;;6.10;63.00;;;;;;5055011;28;20355;-75
2021/01/05 05:01:41;;;;;;;90.03;33.72;;;6.10;63.10;;;;;;5054948;28;20029;-76
2021/01/05 05:04:13;;;;;;;87.80;32.58;;;6.10;63.20;;;;;;5054891;28;20028;-76
2021/01/05 05:06:53;;;;;;;102.25;34.75;;;6.10;63.30;;;;;;5053576;28;20410;-76
2021/01/05 05:09:34;;;;;;;77.85;29.20;;;6.10;63.30;;;;;;5053559;28;20462;-76
2021/01/05 05:12:37;;;;;;;97.57;33.45;;;6.10;63.30;;;;;;5054853;28;20363;-76
2021/01/05 05:15:41;;;;;;;87.07;32.30;;;6.10;63.40;;;;;;5053437;28;20021;-75
2021/01/05 05:18:25;;;;;;;94.15;33.60;;;6.00;63.30;;;;;;5053942;28;20032;-76
2021/01/05 05:21:09;;;;;;;;;;;6.00;63.30;;;;;;5054906;28;20035;-76
2021/01/05 05:23:49;;;;;;;84.32;32.60;;;6.10;63.10;;;;;;5054310;28;19947;-76
2021/01/05 05:26:30;;;;;;;82.95;31.50;;;6.00;63.20;;;;;;5053528;28;20355;-76
2021/01/05 05:29:01;;;;;;;89.90;31.35;;;6.00;63.30;;;;;;5054222;28;20027;-76
2021/01/05 05:31:31;;;;;;;75.63;28.45;;;6.00;63.50;;;;;;5054651;28;20021;-76
2021/01/05 05:34:01;;;;;;;72.53;28.33;;;6.00;63.50;;;;;;5060639;28;20036;-76
2021/01/05 05:36:56;;;;;;;76.13;30.13;;;6.00;63.50;;;;;;5093114;28;20103;-76
2021/01/05 05:39:40;;;;;;;73.22;29.17;;;5.90;63.50;;;;;;5093127;28;20028;-76
2021/01/05 05:42:41;;;;;;;71.40;29.08;;;5.90;63.50;;;;;;5093898;28;20034;-76
2021/01/05 05:45:22;;;;;;;70.00;29.70;;;5.90;63.50;;;;;;5090917;28;20036;-76
2021/01/05 05:48:03;;;;;;;75.63;27.70;;;5.90;63.50;;;;;;5094334;28;20500;-76
2021/01/05 05:50:54;;;;;;;64.00;26.85;;;5.90;63.50;;;;;;5094504;28;20476;-76
2021/01/05 05:53:24;;;;;;;73.30;30.83;;;6.00;63.50;;;;;;5093479;28;20118;-77
2021/01/05 05:56:02;;;;;;;65.88;27.60;;;6.00;64.20;;;;;;5094539;28;20013;-76
2021/01/05 05:58:33;;;;;;;56.20;24.55;;;5.90;63.40;;;;;;5092937;28;20028;-77
2021/01/05 06:01:02;;;;;;;67.38;28.58;;;6.00;63.50;;;;;;5094418;28;20072;-77
2021/01/05 06:03:28;;;;;;;61.25;25.35;;;6.00;63.40;;;;;;5094365;28;20022;-77
2021/01/05 06:05:54;;;;;;;68.90;26.48;;;6.00;63.30;;;;;;5094009;28;20099;-76
2021/01/05 06:08:21;;;;;;;69.72;27.48;;;6.00;63.40;;;;;;5094155;28;20024;-77
2021/01/05 06:10:47;;;;;;;69.07;28.85;;;6.00;63.30;;;;;;5092688;28;20024;-77
2021/01/05 06:13:13;;;;;;;72.90;28.33;;;6.10;63.40;;;;;;5094483;28;20361;-77
2021/01/05 06:15:39;;;;;;;68.50;28.67;;;6.10;63.50;;;;;;5094191;28;20020;-77
2021/01/05 06:18:08;;;;;;;90.80;32.30;;;6.10;63.50;;;;;;5085804;28;20017;-77
2021/01/05 06:20:34;;;;;;;79.50;30.33;;;6.10;63.60;;;;;;5053751;28;20040;-77
2021/01/05 06:23:00;;;;;;;83.75;32.22;;;6.10;63.50;;;;;;5052185;28;20052;-77
2021/01/05 06:25:27;;;;;;;76.85;29.83;;;6.10;63.60;;;;;;5052245;28;20025;-77
2021/01/05 06:27:53;;;;;;;74.15;28.33;;;6.10;63.60;;;;;;5053477;28;20074;-77
2021/01/05 06:30:19;;;;;;;72.47;28.50;;;6.10;63.60;;;;;;5053225;28;20056;-77
2021/01/05 06:32:45;;;;;;;73.60;29.08;;;6.10;63.60;;;;;;5053283;28;20048;-76
2021/01/05 06:35:13;;;;;;;74.38;28.48;;;6.20;63.60;;;;;;5052124;28;20399;-77
2021/01/05 06:37:39;;;;;;;68.40;25.90;;;6.20;63.60;;;;;;5053319;28;20059;-77
2021/01/05 06:40:07;;;;;;;75.22;29.05;;;6.20;63.60;;;;;;5053335;28;20032;-77
2021/01/05 06:42:33;;;;;;;80.60;28.33;;;6.20;63.60;;;;;;5053375;28;20039;-76
2021/01/05 06:44:59;;;;;;;76.07;26.63;;;6.30;63.60;;;;;;5053570;28;20031;-77
2021/01/05 06:47:24;;;;;;;79.15;28.63;;;6.30;63.60;;;;;;5053284;28;20102;-77
2021/01/05 06:49:50;;;;;;;89.22;30.75;;;6.30;63.60;;;;;;5053363;28;20546;-77
2021/01/05 06:52:16;;;;;;;87.50;31.33;;;6.30;63.60;;;;;;5053175;28;20029;-77
2021/01/05 06:54:42;;;;;;;81.18;28.75;;;6.30;63.60;;;;;;5053194;28;20021;-77
2021/01/05 06:57:08;;;;;;;82.53;29.65;;;6.30;63.60;;;;;;5053148;28;20413;-77
2021/01/05 06:59:34;;;;;;;72.53;25.88;;;6.30;63.60;;;;;;5053334;28;20029;-76
2021/01/05 07:02:06;;;;;;;80.43;29.30;;;6.30;63.50;;;;;;5053627;28;20098;-77
2021/01/05 07:04:32;;;;;;;64.72;24.15;;;6.30;63.50;;;;;;5056032;28;20025;-77
2021/01/05 07:07:00;;;;;;;64.65;23.33;;;6.40;63.50;;;;;;5055920;28;20081;-77
2021/01/05 07:09:27;;;;;;;71.03;26.35;;;6.40;63.50;;;;;;5057124;28;20029;-77
2021/01/05 07:11:53;;;;;;;73.43;26.10;;;6.40;63.50;;;;;;5057082;28;20021;-77
2021/01/05 07:14:22;;;;;;;78.70;27.90;;;6.50;63.50;;;;;;5056934;28;20025;-77
2021/01/05 07:16:48;;;;;;;71.03;25.65;;;6.50;63.40;;;;;;5056882;28;20546;-77
2021/01/05 07:19:14;;;;;;;77.35;24.80;;;6.50;63.20;;;;;;5057555;28;20063;-77
2021/01/05 07:21:40;;;;;;;59.38;23.27;;;6.60;63.20;;;;;;5057007;28;20029;-77
2021/01/05 07:24:06;;;;;;;74.57;26.75;;;6.60;63.20;;;;;;5056832;28;20060;-77
2021/01/05 07:26:33;;;;;;;69.28;25.55;;;6.60;63.10;;;;;;5056721;28;20490;-77
2021/01/05 07:28:59;;;;;;;72.55;24.83;;;6.70;63.00;;;;;;5056444;28;20028;-77
2021/01/05 07:31:25;;;;;;;80.35;28.75;;;6.70;63.00;;;;;;5056963;28;20021;-76
2021/01/05 07:33:51;;;;;;;85.40;30.05;;;6.70;62.90;;;;;;5061664;28;20020;-76
2021/01/05 07:36:38;;;;;;;73.25;27.25;;;6.70;63.00;;;;;;5095554;28;20020;-76
2021/01/05 07:39:20;;;;;;;93.05;30.27;;;6.70;62.90;;;;;;5095451;28;20077;-76
2021/01/05 07:41:46;;;;;;;88.38;27.70;;;6.70;62.80;;;;;;5096513;28;20048;-76
2021/01/05 07:44:12;;;;;;;82.70;29.25;;;6.70;62.80;;;;;;5096320;28;20017;-76
2021/01/05 07:46:37;;;;;;;75.80;27.83;;;6.70;62.80;;;;;;5096781;28;20082;-76
2021/01/05 07:49:03;;;;;;;82.70;27.77;;;6.70;62.80;;;;;;5096815;28;20050;-76
2021/01/05 07:51:29;;;;;;;79.88;27.95;;;6.70;62.90;;;;;;5096572;28;20031;-77
2021/01/05 07:53:54;;;;;;;73.38;26.88;;;6.70;62.90;;;;;;5096753;28;20047;-76
2021/01/05 07:56:20;;;;;;;84.68;29.08;;;6.70;63.00;;;;;;5096706;28;20016;-76
2021/01/05 07:58:46;;;;;;;77.57;27.75;;;6.70;63.00;;;;;;5096410;28;20469;-76
2021/01/05 08:01:12;;;;;;;75.47;27.00;;;6.70;63.10;;;;;;5096393;28;20058;-76
2021/01/05 08:03:38;;;;;;;70.45;25.13;;;6.70;63.20;;;;;;5095083;28;20065;-76
2021/01/05 08:06:08;;;;;;;71.93;25.38;;;6.70;63.20;;;;;;5094968;28;20027;-77
2021/01/05 08:08:34;;;;;;;66.57;23.00;;;6.70;63.20;;;;;;5095961;28;20084;-77
2021/01/05 08:10:59;;;;;;;66.78;25.00;;;6.70;63.20;;;;;;5096188;28;20528;-77
2021/01/05 08:13:25;;;;;;;58.33;20.48;;;6.80;63.30;;;;;;5096351;28;20091;-77
2021/01/05 08:15:51;;;;;;;67.53;22.77;;;6.80;63.30;;;;;;5077482;28;20021;-77
2021/01/05 08:18:17;;;;;;;68.60;23.75;;;6.80;63.30;;;;;;5055775;28;20458;-77
2021/01/05 08:20:43;;;;;;;78.32;26.88;;;6.80;63.30;;;;;;5055620;28;20032;-77
2021/01/05 08:23:08;;;;;;;59.90;20.23;;;6.90;63.20;;;;;;5054203;28;20051;-77
2021/01/05 08:25:34;;;;;;;71.68;22.92;;;6.90;63.20;;;;;;5054311;28;20470;-78
2021/01/05 08:28:01;;;;;;;67.38;25.45;;;6.90;63.20;;;;;;5055516;28;20025;-77
2021/01/05 08:30:35;;;;;;;67.15;24.55;;;6.90;63.00;;;;;;5056885;28;20498;-78
2021/01/05 08:33:09;;;;;;;67.72;22.05;;;7.00;63.00;;;;;;5055975;28;20052;-77
2021/01/05 08:35:36;;;;;;;60.47;22.63;;;7.00;63.70;;;;;;5062374;28;20107;-77
2021/01/05 08:38:03;;;;;;;62.00;22.85;;;7.10;63.00;;;;;;5072752;28;20029;-77
2021/01/05 08:40:32;;;;;;;58.42;22.63;;;7.10;63.00;;;;;;5056753;28;20071;-77
2021/01/05 08:43:02;;;;;;;66.50;24.48;;;7.10;62.90;;;;;;5073730;28;20020;-77
2021/01/05 08:45:29;;;;;;;73.03;27.42;;;7.10;62.80;;;;;;5069971;28;20024;-78
2021/01/05 08:47:55;;;;;;;72.82;26.05;;;7.10;62.60;;;;;;5055133;28;20025;-78
2021/01/05 08:50:28;;;;;;;77.50;27.65;;;7.10;62.60;;;;;;5055091;28;20436;-78
2021/01/05 08:52:59;;;;;;;76.80;28.80;;;7.10;62.30;;;;;;5054944;28;20027;-78
2021/01/05 08:55:25;;;;;;;78.88;27.88;;;7.10;62.20;;;;;;5054712;28;20095;-77
2021/01/05 08:57:50;;;;;;;71.20;26.13;;;7.10;62.20;;;;;;5070637;28;20032;-78
2021/01/05 09:00:16;;;;;;;72.15;26.40;;;7.10;62.20;;;;;;5072275;28;20028;-77
2021/01/05 09:02:42;;;;;;;66.72;24.17;;;7.10;62.30;;;;;;5073049;28;20436;-78
2021/01/05 09:05:09;;;;;;;62.50;24.42;;;7.10;62.50;;;;;;5068517;28;20025;-78
2021/01/05 09:07:35;;;;;;;52.88;21.00;;;7.10;62.50;;;;;;5067795;28;20533;-77
2021/01/05 09:10:00;;;;;;;59.95;24.20;;;7.20;62.60;;;;;;5054382;28;20029;-78
2021/01/05 09:12:36;;;;;;;64.72;24.85;;;7.20;62.40;;;;;;5063837;28;20028;-78
2021/01/05 09:15:04;;;;;;;60.10;23.40;;;7.30;62.20;;;;;;5060752;28;20032;-77
2021/01/05 09:17:30;;;;;;;56.72;23.40;;;7.30;62.10;;;;;;5054413;28;20029;-78
2021/01/05 09:19:55;;;;;;;51.35;22.05;;;7.40;62.10;;;;;;5055585;28;20501;-77
2021/01/05 09:22:25;;;;;;;60.15;23.30;;;7.40;61.70;;;;;;5058139;28;20123;-76
2021/01/05 09:24:51;;;;;;;64.53;25.27;;;7.40;61.60;;;;;;5074459;28;20077;-76
2021/01/05 09:27:17;;;;;;;58.40;22.73;;;7.50;61.40;;;;;;5063741;28;20035;-77
2021/01/05 09:29:44;;;;;;;54.85;21.95;;;7.50;61.40;;;;;;5054383;28;20078;-77
2021/01/05 09:32:10;;;;;;;62.45;23.30;;;7.60;61.40;;;;;;5070413;28;20162;-77
2021/01/05 09:34:36;;;;;;;61.35;24.67;;;7.60;61.20;;;;;;5074487;28;20556;-77
2021/01/05 09:37:04;;;;;;;56.75;23.40;;;7.60;61.00;;;;;;5062638;28;20029;-76
2021/01/05 09:39:30;;;;;;;49.60;21.05;;;7.70;60.90;;;;;;5054191;28;20025;-76
2021/01/05 09:42:02;;;;;;;51.35;20.50;;;7.60;60.60;;;;;;5054079;28;20111;-77
2021/01/05 09:44:29;;;;;;;51.83;21.95;;;7.70;60.70;;;;;;5052948;28;20033;-77
2021/01/05 09:46:57;;;;;;;49.85;21.75;;;7.70;60.30;;;;;;5054161;28;20025;-77
2021/01/05 09:49:25;;;;;;;52.13;22.75;;;7.70;60.30;;;;;;5053886;28;20025;-79
2021/01/05 09:51:51;;;;;;;56.35;23.75;;;7.70;59.90;;;;;;5054000;28;20028;-77
2021/01/05 09:54:18;;;;;;;50.75;22.13;;;7.70;59.70;;;;;;5060629;28;20033;-77
2021/01/05 09:56:51;;;;;;;51.75;21.88;;;7.60;59.70;;;;;;5068309;28;20490;-76
2021/01/05 09:59:18;;;;;;;59.03;23.92;;;7.60;59.70;;;;;;5081435;28;20035;-77
2021/01/05 10:01:44;;;;;;;54.10;24.70;;;7.60;59.80;;;;;;5063552;28;20057;-77
2021/01/05 10:04:10;;;;;;;55.42;21.60;;;7.60;59.80;;;;;;5069773;28;20125;-77
2021/01/05 10:06:36;;;;;;;56.08;23.42;;;7.60;60.00;;;;;;5089545;28;20507;-77
2021/01/05 10:09:08;;;;;;;57.70;22.75;;;7.60;60.20;;;;;;5079815;28;20028;-77
2021/01/05 10:11:37;;;;;;;60.08;24.83;;;7.60;60.00;;;;;;5081185;28;20031;-78
2021/01/05 10:14:03;;;;;;;65.18;26.33;;;7.60;60.00;;;;;;5066819;28;20386;-78
2021/01/05 10:16:29;;;;;;;64.82;26.10;;;7.60;59.90;;;;;;5090213;28;20498;-78
2021/01/05 10:18:54;;;;;;;55.75;21.98;;;7.60;60.00;;;;;;5079436;28;20039;-77
2021/01/05 10:21:23;;;;;;;56.83;23.45;;;7.60;60.00;;;;;;5082612;28;20099;-78
2021/01/05 10:23:50;;;;;;;54.50;22.33;;;7.60;60.20;;;;;;5062516;28;20398;-78
2021/01/05 10:26:16;;;;;;;48.45;21.20;;;7.60;60.40;;;;;;5085193;28;20078;-78
2021/01/05 10:28:41;;;;;;;49.00;21.38;;;7.70;60.50;;;;;;5075381;28;20489;-78
2021/01/05 10:31:07;;;;;;;63.85;25.38;;;7.80;60.50;;;;;;5084758;28;20013;-78
2021/01/05 10:33:33;;;;;;;60.05;24.35;;;7.80;60.10;;;;;;5064829;28;20102;-78
2021/01/05 10:35:59;;;;;;;56.05;23.13;;;7.80;59.90;;;;;;5066199;28;20024;-78
2021/01/05 10:38:24;;;;;;;55.95;24.13;;;7.80;59.80;;;;;;5081583;28;20545;-78
2021/01/05 10:40:53;;;;;;;59.42;24.40;;;7.80;59.70;;;;;;5088442;28;20043;-77
2021/01/05 10:43:19;;;;;;;64.85;27.77;;;7.80;60.30;;;;;;5070744;28;20087;-77
2021/01/05 10:45:45;;;;;;;57.67;23.83;;;7.80;59.50;;;;;;5077651;28;20029;-77
2021/01/05 10:48:11;;;;;;;60.28;25.23;;;7.80;59.60;;;;;;5075726;28;20025;-77
2021/01/05 10:50:38;;;;;;;58.05;23.30;;;7.80;59.60;;;;;;5089501;28;20016;-77
2021/01/05 10:53:04;;;;;;;46.47;21.13;;;7.80;59.60;;;;;;5064974;28;20105;-77
2021/01/05 10:55:30;;;;;;;52.47;20.40;;;7.80;59.80;;;;;;5073727;28;20440;-77
2021/01/05 10:57:57;;;;;;;62.95;25.65;;;7.80;59.80;;;;;;5071182;28;20021;-77
2021/01/05 11:00:23;;;;;;;54.17;23.80;;;7.80;59.70;;;;;;5073258;28;20024;-77
2021/01/05 11:02:49;;;;;;;51.42;23.85;;;7.80;59.70;;;;;;5078241;28;20020;-78
2021/01/05 11:05:16;;;;;;;52.17;22.70;;;7.90;59.70;;;;;;5070281;28;20065;-77
2021/01/05 11:07:43;;;;;;;52.25;24.23;;;7.80;59.60;;;;;;5061458;28;20127;-78
2021/01/05 11:10:10;;;;;;;46.95;20.95;;;7.90;59.70;;;;;;5088470;28;20028;-78
2021/01/05 11:12:37;;;;;;;46.17;20.77;;;7.90;59.90;;;;;;5064708;28;20426;-78
2021/01/05 11:15:04;;;;;;;50.60;21.65;;;7.90;59.80;;;;;;5065762;28;20476;-78
2021/01/05 11:17:30;;;;;;;50.20;23.35;;;7.90;59.80;;;;;;5081733;28;20111;-78
2021/01/05 11:19:56;;;;;;;50.97;20.30;;;7.90;59.80;;;;;;5066974;28;20100;-79
2021/01/05 11:22:22;;;;;;;45.20;21.52;;;8.00;59.90;;;;;;5070698;28;20129;-78
2021/01/05 11:24:48;;;;;;;45.05;21.15;;;8.00;59.90;;;;;;5062717;28;20377;-78
2021/01/05 11:27:16;;;;;;;60.60;26.05;;;8.00;59.90;;;;;;5084956;28;20024;-78
2021/01/05 11:29:43;;;;;;;54.13;23.90;;;8.10;59.70;;;;;;5065828;28;20150;-77
2021/01/05 11:32:12;;;;;;;57.78;24.55;;;8.10;59.50;;;;;;5074439;28;20363;-77
2021/01/05 11:34:40;;;;;;;49.90;23.08;;;8.10;59.40;;;;;;5088750;28;20025;-77
2021/01/05 11:37:10;;;;;;;49.50;22.77;;;8.20;59.40;;;;;;5078245;28;20020;-78
2021/01/05 11:39:40;;;;;;;54.45;23.20;;;8.20;59.40;;;;;;5081319;28;20025;-78
2021/01/05 11:42:06;;;;;;;59.45;25.50;;;8.20;59.40;;;;;;5086395;28;20051;-78
2021/01/05 11:44:33;;;;;;;53.47;23.75;;;8.20;59.10;;;;;;5071355;28;20029;-78
2021/01/05 11:46:59;;;;;;;49.33;24.17;;;8.20;59.10;;;;;;5079262;28;20030;-78
2021/01/05 11:49:25;;;;;;;53.10;23.73;;;8.20;59.00;;;;;;5071172;28;20115;-78
2021/01/05 11:51:53;;;;;;;55.40;24.80;;;8.20;59.00;;;;;;5083001;28;20020;-77
2021/01/05 11:54:20;;;;;;;44.30;20.42;;;8.20;59.00;;;;;;5082295;28;20112;-77
2021/01/05 11:56:46;;;;;;;47.78;22.73;;;8.20;59.10;;;;;;5092092;28;20020;-77
2021/01/05 11:59:13;;;;;;;52.70;24.20;;;8.20;59.20;;;;;;5089517;28;20035;-77
2021/01/05 12:01:39;;;;;;;50.15;24.98;;;8.20;59.20;;;;;;5087806;28;20028;-77
2021/01/05 12:04:07;;;;;;;51.33;24.13;;;8.20;59.00;;;;;;5073146;28;20081;-77
2021/01/05 12:06:32;;;;;;;52.05;24.08;;;8.20;59.10;;;;;;5084325;28;20024;-77
2021/01/05 12:08:59;;;;;;;51.50;25.15;;;8.30;59.10;;;;;;5081668;28;20377;-77
2021/01/05 12:11:27;;;;;;;51.65;22.92;;;8.30;59.60;;;;;;5061024;28;20032;-77
2021/01/05 12:13:53;;;;;;;53.55;25.98;;;8.30;59.10;;;;;;5060368;28;20481;-77
2021/01/05 12:16:32;;;;;;;58.38;25.65;;;8.30;59.00;;;;;;5089350;28;20036;-77
2021/01/05 12:19:01;;;;;;;56.20;24.92;;;8.30;58.80;;;;;;5081654;28;20071;-77
2021/01/05 12:21:36;;;;;;;52.67;25.02;;;8.30;58.90;;;;;;5085734;28;20425;-77
2021/01/05 12:24:02;;;;;;;52.42;24.65;;;8.30;58.90;;;;;;5090079;28;20099;-77
2021/01/05 12:26:36;;;;;;;48.60;22.92;;;8.30;59.00;;;;;;5076776;28;20568;-77
2021/01/05 12:29:06;;;;;;;59.45;27.92;;;8.30;59.00;;;;;;5087542;28;20036;-77
2021/01/05 12:31:42;;;;;;;53.83;25.80;;;8.30;58.80;;;;;;5075121;28;20024;-78
2021/01/05 12:34:09;;;;;;;58.20;27.23;;;8.30;58.80;;;;;;5077678;28;20502;-77
2021/01/05 12:36:37;;;;;;;53.65;25.20;;;8.30;58.80;;;;;;5090595;28;20039;-77
2021/01/05 12:39:05;;;;;;;54.55;26.15;;;8.30;58.80;;;;;;5063042;28;20071;-77
2021/01/05 12:41:36;;;;;;;54.92;27.35;;;8.20;58.90;;;;;;5065178;28;20029;-77
2021/01/05 12:44:05;;;;;;;62.45;27.73;;;8.20;58.80;;;;;;5088561;28;20024;-76
2021/01/05 12:46:34;;;;;;;68.40;29.40;;;8.30;58.80;;;;;;5076942;28;20025;-77
2021/01/05 12:49:00;;;;;;;67.90;30.33;;;8.20;58.80;;;;;;5088904;28;20036;-77
2021/01/05 12:51:32;;;;;;;62.67;26.85;;;8.20;58.70;;;;;;5083294;28;20024;-77
2021/01/05 12:53:58;;;;;;;59.85;26.35;;;8.20;58.80;;;;;;5073110;28;20012;-76